sensor_id;sensor_type;location;lat;lon;timestamp;P1;durP1;ratioP1;P2;durP2;ratioP2
26594;SDS011;14238;49.496;8.154;2023-02-28T00:00:01;3.30;;;3.00;;
26594;SDS011;14238;49.496;8.154;2023-02-28T00:02:33;2.80;;;2.60;;
26594;SDS011;14238;49.496;8.154;2023-02-28T00:04:58;4.37;;;4.00;;
26594;SDS011;14238;49.496;8.154;2023-02-28T00:07:28;3.33;;;3.13;;
26594;SDS011;14238;49.496;8.154;2023-02-28T00:09:55;3.40;;;3.20;;
26594;SDS011;14238;49.496;8.154;2023-02-28T00:12:20;3.20;;;3.00;;
26594;SDS011;14238;49.496;8.154;2023-02-28T00:14:46;3.40;;;3.20;;
26594;SDS011;14238;49.496;8.154;2023-02-28T00:17:12;6.00;;;3.70;;
26594;SDS011;14238;49.496;8.154;2023-02-28T00:19:37;3.30;;;3.10;;
26594;SDS011;14238;49.496;8.154;2023-02-28T00:22:03;3.70;;;3.50;;
26594;SDS011;14238;49.496;8.154;2023-02-28T00:24:28;3.50;;;3.30;;
26594;SDS011;14238;49.496;8.154;2023-02-28T00:26:54;4.10;;;3.80;;
26594;SDS011;14238;49.496;8.154;2023-02-28T00:29:19;3.90;;;3.60;;
26594;SDS011;14238;49.496;8.154;2023-02-28T00:31:45;3.90;;;3.60;;
26594;SDS011;14238;49.496;8.154;2023-02-28T00:34:10;4.00;;;3.80;;
26594;SDS011;14238;49.496;8.154;2023-02-28T00:36:36;4.33;;;3.93;;
26594;SDS011;14238;49.496;8.154;2023-02-28T00:39:01;3.60;;;3.40;;
26594;SDS011;14238;49.496;8.154;2023-02-28T00:41:27;4.27;;;4.03;;
26594;SDS011;14238;49.496;8.154;2023-02-28T00:43:52;3.63;;;3.43;;
26594;SDS011;14238;49.496;8.154;2023-02-28T00:46:18;3.63;;;3.33;;
26594;SDS011;14238;49.496;8.154;2023-02-28T00:48:43;4.00;;;3.70;;
26594;SDS011;14238;49.496;8.154;2023-02-28T00:51:09;3.90;;;3.70;;
26594;SDS011;14238;49.496;8.154;2023-02-28T00:53:35;3.90;;;3.70;;
26594;SDS011;14238;49.496;8.154;2023-02-28T00:56:00;4.30;;;3.90;;
26594;SDS011;14238;49.496;8.154;2023-02-28T00:58:26;4.00;;;3.70;;
26594;SDS011;14238;49.496;8.154;2023-02-28T01:00:52;4.93;;;4.53;;
26594;SDS011;14238;49.496;8.154;2023-02-28T01:03:19;4.40;;;4.10;;
26594;SDS011;14238;49.496;8.154;2023-02-28T01:05:45;4.00;;;3.70;;
26594;SDS011;14238;49.496;8.154;2023-02-28T01:08:11;3.90;;;3.60;;
26594;SDS011;14238;49.496;8.154;2023-02-28T01:10:38;4.13;;;3.73;;
26594;SDS011;14238;49.496;8.154;2023-02-28T01:13:04;4.30;;;4.00;;
26594;SDS011;14238;49.496;8.154;2023-02-28T01:15:29;4.50;;;4.20;;
26594;SDS011;14238;49.496;8.154;2023-02-28T01:17:56;4.00;;;3.60;;
26594;SDS011;14238;49.496;8.154;2023-02-28T01:20:22;4.93;;;4.53;;
26594;SDS011;14238;49.496;8.154;2023-02-28T01:22:48;4.50;;;4.20;;
26594;SDS011;14238;49.496;8.154;2023-02-28T01:25:14;4.60;;;4.20;;
26594;SDS011;14238;49.496;8.154;2023-02-28T01:27:39;4.20;;;3.90;;
26594;SDS011;14238;49.496;8.154;2023-02-28T01:30:06;4.23;;;3.83;;
26594;SDS011;14238;49.496;8.154;2023-02-28T01:32:32;6.40;;;4.50;;
26594;SDS011;14238;49.496;8.154;2023-02-28T01:34:58;4.50;;;4.20;;
26594;SDS011;14238;49.496;8.154;2023-02-28T01:37:23;4.13;;;3.83;;
26594;SDS011;14238;49.496;8.154;2023-02-28T01:39:49;4.93;;;4.53;;
26594;SDS011;14238;49.496;8.154;2023-02-28T01:42:15;4.30;;;4.00;;
26594;SDS011;14238;49.496;8.154;2023-02-28T01:47:43;4.90;;;4.50;;
26594;SDS011;14238;49.496;8.154;2023-02-28T01:50:11;5.67;;;4.23;;
26594;SDS011;14238;49.496;8.154;2023-02-28T01:52:41;5.20;;;4.80;;
26594;SDS011;14238;49.496;8.154;2023-02-28T01:55:08;5.37;;;4.87;;
26594;SDS011;14238;49.496;8.154;2023-02-28T01:57:38;5.47;;;4.97;;
26594;SDS011;14238;49.496;8.154;2023-02-28T02:00:11;4.60;;;4.30;;
26594;SDS011;14238;49.496;8.154;2023-02-28T02:02:43;4.57;;;4.27;;
26594;SDS011;14238;49.496;8.154;2023-02-28T02:05:16;5.20;;;4.80;;
26594;SDS011;14238;49.496;8.154;2023-02-28T02:07:44;4.30;;;3.90;;
26594;SDS011;14238;49.496;8.154;2023-02-28T02:10:16;4.50;;;4.10;;
26594;SDS011;14238;49.496;8.154;2023-02-28T02:13:08;4.33;;;4.03;;
26594;SDS011;14238;49.496;8.154;2023-02-28T02:24:44;5.00;;;4.60;;
26594;SDS011;14238;49.496;8.154;2023-02-28T02:35:52;4.83;;;4.47;;
26594;SDS011;14238;49.496;8.154;2023-02-28T02:41:05;5.93;;;5.53;;
26594;SDS011;14238;49.496;8.154;2023-02-28T02:43:56;5.20;;;4.77;;
26594;SDS011;14238;49.496;8.154;2023-02-28T02:46:41;9.20;;;4.70;;
26594;SDS011;14238;49.496;8.154;2023-02-28T02:49:10;4.87;;;4.47;;
26594;SDS011;14238;49.496;8.154;2023-02-28T02:51:41;4.00;;;3.70;;
26594;SDS011;14238;49.496;8.154;2023-02-28T02:54:11;5.10;;;4.60;;
26594;SDS011;14238;49.496;8.154;2023-02-28T02:56:41;5.43;;;4.63;;
26594;SDS011;14238;49.496;8.154;2023-02-28T02:59:09;4.40;;;4.10;;
26594;SDS011;14238;49.496;8.154;2023-02-28T03:01:38;4.70;;;4.30;;
26594;SDS011;14238;49.496;8.154;2023-02-28T03:04:11;4.80;;;4.40;;
26594;SDS011;14238;49.496;8.154;2023-02-28T03:06:39;4.43;;;4.10;;
26594;SDS011;14238;49.496;8.154;2023-02-28T03:09:04;5.37;;;4.87;;
26594;SDS011;14238;49.496;8.154;2023-02-28T03:11:31;4.67;;;4.37;;
26594;SDS011;14238;49.496;8.154;2023-02-28T03:24:31;5.50;;;5.00;;
26594;SDS011;14238;49.496;8.154;2023-02-28T03:27:12;5.47;;;4.27;;
26594;SDS011;14238;49.496;8.154;2023-02-28T03:29:50;5.43;;;4.93;;
26594;SDS011;14238;49.496;8.154;2023-02-28T03:35:18;5.50;;;5.10;;
26594;SDS011;14238;49.496;8.154;2023-02-28T03:37:48;4.70;;;4.30;;
26594;SDS011;14238;49.496;8.154;2023-02-28T03:40:19;5.40;;;5.00;;
26594;SDS011;14238;49.496;8.154;2023-02-28T03:42:50;4.73;;;4.40;;
26594;SDS011;14238;49.496;8.154;2023-02-28T03:45:21;5.30;;;4.90;;
26594;SDS011;14238;49.496;8.154;2023-02-28T03:53:13;4.80;;;4.10;;
26594;SDS011;14238;49.496;8.154;2023-02-28T03:55:48;4.63;;;4.17;;
26594;SDS011;14238;49.496;8.154;2023-02-28T04:01:12;5.00;;;4.60;;
26594;SDS011;14238;49.496;8.154;2023-02-28T04:03:41;4.43;;;4.10;;
26594;SDS011;14238;49.496;8.154;2023-02-28T04:06:08;5.90;;;5.40;;
26594;SDS011;14238;49.496;8.154;2023-02-28T04:08:41;5.63;;;5.03;;
26594;SDS011;14238;49.496;8.154;2023-02-28T04:11:11;5.57;;;5.17;;
26594;SDS011;14238;49.496;8.154;2023-02-28T04:13:44;5.20;;;4.70;;
26594;SDS011;14238;49.496;8.154;2023-02-28T04:16:09;5.27;;;4.83;;
26594;SDS011;14238;49.496;8.154;2023-02-28T04:18:38;5.23;;;4.83;;
26594;SDS011;14238;49.496;8.154;2023-02-28T04:21:04;5.17;;;4.70;;
26594;SDS011;14238;49.496;8.154;2023-02-28T04:23:30;5.40;;;5.00;;
26594;SDS011;14238;49.496;8.154;2023-02-28T04:25:56;6.53;;;5.20;;
26594;SDS011;14238;49.496;8.154;2023-02-28T04:28:22;6.07;;;5.57;;
26594;SDS011;14238;49.496;8.154;2023-02-28T04:30:53;5.73;;;5.27;;
26594;SDS011;14238;49.496;8.154;2023-02-28T04:33:22;6.20;;;5.70;;
26594;SDS011;14238;49.496;8.154;2023-02-28T04:35:48;5.70;;;5.20;;
26594;SDS011;14238;49.496;8.154;2023-02-28T04:38:13;6.60;;;6.00;;
26594;SDS011;14238;49.496;8.154;2023-02-28T04:40:39;6.30;;;5.80;;
26594;SDS011;14238;49.496;8.154;2023-02-28T04:43:04;6.60;;;5.90;;
26594;SDS011;14238;49.496;8.154;2023-02-28T04:45:30;6.07;;;5.60;;
26594;SDS011;14238;49.496;8.154;2023-02-28T04:47:57;6.33;;;5.80;;
26594;SDS011;14238;49.496;8.154;2023-02-28T04:50:23;6.80;;;6.20;;
26594;SDS011;14238;49.496;8.154;2023-02-28T04:52:48;6.77;;;6.17;;
26594;SDS011;14238;49.496;8.154;2023-02-28T04:55:14;6.43;;;5.87;;
26594;SDS011;14238;49.496;8.154;2023-02-28T04:57:40;6.97;;;6.10;;
26594;SDS011;14238;49.496;8.154;2023-02-28T05:00:07;6.60;;;6.00;;
26594;SDS011;14238;49.496;8.154;2023-02-28T05:02:36;6.40;;;5.90;;
26594;SDS011;14238;49.496;8.154;2023-02-28T05:05:02;7.80;;;6.87;;
26594;SDS011;14238;49.496;8.154;2023-02-28T05:07:27;7.27;;;6.20;;
26594;SDS011;14238;49.496;8.154;2023-02-28T05:09:54;6.93;;;6.20;;
26594;SDS011;14238;49.496;8.154;2023-02-28T05:12:19;6.80;;;6.30;;
26594;SDS011;14238;49.496;8.154;2023-02-28T05:14:45;6.80;;;6.20;;
26594;SDS011;14238;49.496;8.154;2023-02-28T05:17:10;7.37;;;6.77;;
26594;SDS011;14238;49.496;8.154;2023-02-28T05:19:36;6.93;;;6.30;;
26594;SDS011;14238;49.496;8.154;2023-02-28T05:22:01;8.40;;;6.77;;
26594;SDS011;14238;49.496;8.154;2023-02-28T05:24:27;7.23;;;6.53;;
26594;SDS011;14238;49.496;8.154;2023-02-28T05:26:53;6.70;;;6.10;;
26594;SDS011;14238;49.496;8.154;2023-02-28T05:29:19;7.50;;;6.90;;
26594;SDS011;14238;49.496;8.154;2023-02-28T05:31:46;7.90;;;6.83;;
26594;SDS011;14238;49.496;8.154;2023-02-28T05:34:11;8.00;;;6.67;;
26594;SDS011;14238;49.496;8.154;2023-02-28T05:36:37;7.73;;;6.90;;
26594;SDS011;14238;49.496;8.154;2023-02-28T05:39:05;8.60;;;6.90;;
26594;SDS011;14238;49.496;8.154;2023-02-28T05:41:32;8.03;;;7.23;;
26594;SDS011;14238;49.496;8.154;2023-02-28T05:43:57;7.30;;;6.67;;
26594;SDS011;14238;49.496;8.154;2023-02-28T05:46:25;7.70;;;6.93;;
26594;SDS011;14238;49.496;8.154;2023-02-28T05:48:50;9.50;;;7.63;;
26594;SDS011;14238;49.496;8.154;2023-02-28T05:51:16;11.07;;;7.73;;
26594;SDS011;14238;49.496;8.154;2023-02-28T05:53:42;8.13;;;7.33;;
26594;SDS011;14238;49.496;8.154;2023-02-28T05:56:08;8.77;;;7.97;;
26594;SDS011;14238;49.496;8.154;2023-02-28T05:58:34;7.63;;;6.93;;
26594;SDS011;14238;49.496;8.154;2023-02-28T06:01:00;8.60;;;6.80;;
26594;SDS011;14238;49.496;8.154;2023-02-28T06:03:43;8.20;;;7.47;;
26594;SDS011;14238;49.496;8.154;2023-02-28T06:06:09;8.57;;;7.03;;
26594;SDS011;14238;49.496;8.154;2023-02-28T06:08:34;12.17;;;7.00;;
26594;SDS011;14238;49.496;8.154;2023-02-28T06:11:02;10.90;;;8.07;;
26594;SDS011;14238;49.496;8.154;2023-02-28T06:13:28;7.97;;;7.37;;
26594;SDS011;14238;49.496;8.154;2023-02-28T06:15:54;9.30;;;8.40;;
26594;SDS011;14238;49.496;8.154;2023-02-28T06:18:19;8.77;;;8.00;;
26594;SDS011;14238;49.496;8.154;2023-02-28T06:20:51;8.07;;;7.37;;
26594;SDS011;14238;49.496;8.154;2023-02-28T06:23:19;7.97;;;7.23;;
26594;SDS011;14238;49.496;8.154;2023-02-28T06:25:45;8.73;;;7.83;;
26594;SDS011;14238;49.496;8.154;2023-02-28T06:28:11;8.73;;;7.83;;
26594;SDS011;14238;49.496;8.154;2023-02-28T06:30:37;9.07;;;7.57;;
26594;SDS011;14238;49.496;8.154;2023-02-28T06:33:03;7.60;;;7.00;;
26594;SDS011;14238;49.496;8.154;2023-02-28T06:35:28;8.90;;;7.90;;
26594;SDS011;14238;49.496;8.154;2023-02-28T06:37:54;8.17;;;7.27;;
26594;SDS011;14238;49.496;8.154;2023-02-28T06:40:20;9.87;;;7.50;;
26594;SDS011;14238;49.496;8.154;2023-02-28T06:42:45;8.40;;;7.70;;
26594;SDS011;14238;49.496;8.154;2023-02-28T06:45:11;8.33;;;7.53;;
26594;SDS011;14238;49.496;8.154;2023-02-28T06:47:37;8.30;;;7.50;;
26594;SDS011;14238;49.496;8.154;2023-02-28T06:50:04;7.37;;;6.73;;
26594;SDS011;14238;49.496;8.154;2023-02-28T06:52:31;8.07;;;7.27;;
26594;SDS011;14238;49.496;8.154;2023-02-28T06:54:56;10.30;;;6.87;;
26594;SDS011;14238;49.496;8.154;2023-02-28T06:57:31;8.50;;;7.70;;
26594;SDS011;14238;49.496;8.154;2023-02-28T06:59:58;7.80;;;7.00;;
26594;SDS011;14238;49.496;8.154;2023-02-28T07:02:24;7.77;;;7.17;;
26594;SDS011;14238;49.496;8.154;2023-02-28T07:04:50;7.43;;;6.73;;
26594;SDS011;14238;49.496;8.154;2023-02-28T07:07:16;7.83;;;6.97;;
26594;SDS011;14238;49.496;8.154;2023-02-28T07:09:43;8.40;;;7.60;;
26594;SDS011;14238;49.496;8.154;2023-02-28T07:12:08;7.73;;;7.03;;
26594;SDS011;14238;49.496;8.154;2023-02-28T07:14:35;8.07;;;7.37;;
26594;SDS011;14238;49.496;8.154;2023-02-28T07:17:02;6.83;;;6.30;;
26594;SDS011;14238;49.496;8.154;2023-02-28T07:19:27;9.80;;;8.00;;
26594;SDS011;14238;49.496;8.154;2023-02-28T07:21:53;7.10;;;6.50;;
26594;SDS011;14238;49.496;8.154;2023-02-28T07:24:18;8.07;;;7.30;;
26594;SDS011;14238;49.496;8.154;2023-02-28T07:26:44;8.30;;;7.60;;
26594;SDS011;14238;49.496;8.154;2023-02-28T07:29:09;7.20;;;6.50;;
26594;SDS011;14238;49.496;8.154;2023-02-28T07:31:35;7.80;;;6.80;;
26594;SDS011;14238;49.496;8.154;2023-02-28T07:34:01;8.70;;;7.33;;
26594;SDS011;14238;49.496;8.154;2023-02-28T07:36:27;8.03;;;7.20;;
26594;SDS011;14238;49.496;8.154;2023-02-28T07:38:53;7.00;;;6.40;;
26594;SDS011;14238;49.496;8.154;2023-02-28T07:41:20;7.33;;;6.73;;
26594;SDS011;14238;49.496;8.154;2023-02-28T07:43:46;7.10;;;6.50;;
26594;SDS011;14238;49.496;8.154;2023-02-28T07:46:13;7.40;;;6.80;;
26594;SDS011;14238;49.496;8.154;2023-02-28T07:48:40;8.60;;;7.77;;
26594;SDS011;14238;49.496;8.154;2023-02-28T07:51:06;7.20;;;6.60;;
26594;SDS011;14238;49.496;8.154;2023-02-28T07:53:32;7.90;;;7.23;;
26594;SDS011;14238;49.496;8.154;2023-02-28T07:55:59;7.07;;;6.50;;
26594;SDS011;14238;49.496;8.154;2023-02-28T07:58:26;7.23;;;6.53;;
26594;SDS011;14238;49.496;8.154;2023-02-28T08:00:52;8.40;;;7.60;;
26594;SDS011;14238;49.496;8.154;2023-02-28T08:03:18;8.00;;;7.30;;
26594;SDS011;14238;49.496;8.154;2023-02-28T08:05:45;6.90;;;6.20;;
26594;SDS011;14238;49.496;8.154;2023-02-28T08:08:11;11.63;;;7.60;;
26594;SDS011;14238;49.496;8.154;2023-02-28T08:10:37;9.27;;;6.57;;
26594;SDS011;14238;49.496;8.154;2023-02-28T08:13:02;6.37;;;5.87;;
26594;SDS011;14238;49.496;8.154;2023-02-28T08:15:28;6.90;;;6.40;;
26594;SDS011;14238;49.496;8.154;2023-02-28T08:17:53;7.40;;;6.70;;
26594;SDS011;14238;49.496;8.154;2023-02-28T08:20:21;6.70;;;6.00;;
26594;SDS011;14238;49.496;8.154;2023-02-28T08:22:47;5.80;;;5.30;;
26594;SDS011;14238;49.496;8.154;2023-02-28T08:25:13;6.10;;;5.60;;
26594;SDS011;14238;49.496;8.154;2023-02-28T08:27:39;8.53;;;6.30;;
26594;SDS011;14238;49.496;8.154;2023-02-28T08:30:04;11.03;;;6.60;;
26594;SDS011;14238;49.496;8.154;2023-02-28T08:32:31;6.80;;;6.20;;
26594;SDS011;14238;49.496;8.154;2023-02-28T08:34:58;6.73;;;6.13;;
26594;SDS011;14238;49.496;8.154;2023-02-28T08:37:24;9.33;;;6.63;;
26594;SDS011;14238;49.496;8.154;2023-02-28T08:39:50;6.63;;;6.03;;
26594;SDS011;14238;49.496;8.154;2023-02-28T08:42:15;6.30;;;5.70;;
26594;SDS011;14238;49.496;8.154;2023-02-28T08:44:41;11.10;;;7.00;;
26594;SDS011;14238;49.496;8.154;2023-02-28T08:47:07;6.90;;;6.30;;
26594;SDS011;14238;49.496;8.154;2023-02-28T08:49:32;8.00;;;5.47;;
26594;SDS011;14238;49.496;8.154;2023-02-28T08:51:59;6.23;;;5.63;;
26594;SDS011;14238;49.496;8.154;2023-02-28T08:54:25;6.70;;;6.07;;
26594;SDS011;14238;49.496;8.154;2023-02-28T08:56:50;8.50;;;6.93;;
26594;SDS011;14238;49.496;8.154;2023-02-28T08:59:16;7.07;;;6.03;;
26594;SDS011;14238;49.496;8.154;2023-02-28T09:01:42;6.63;;;6.10;;
26594;SDS011;14238;49.496;8.154;2023-02-28T09:04:08;6.63;;;6.10;;
26594;SDS011;14238;49.496;8.154;2023-02-28T09:06:35;6.43;;;5.93;;
26594;SDS011;14238;49.496;8.154;2023-02-28T09:09:01;7.07;;;6.47;;
26594;SDS011;14238;49.496;8.154;2023-02-28T09:11:28;6.73;;;6.03;;
26594;SDS011;14238;49.496;8.154;2023-02-28T09:13:53;6.60;;;6.10;;
26594;SDS011;14238;49.496;8.154;2023-02-28T09:16:20;7.87;;;7.13;;
26594;SDS011;14238;49.496;8.154;2023-02-28T09:18:46;7.13;;;6.43;;
26594;SDS011;14238;49.496;8.154;2023-02-28T09:21:13;8.77;;;7.33;;
26594;SDS011;14238;49.496;8.154;2023-02-28T09:23:41;7.90;;;7.30;;
26594;SDS011;14238;49.496;8.154;2023-02-28T09:26:11;7.57;;;6.77;;
26594;SDS011;14238;49.496;8.154;2023-02-28T09:28:59;7.13;;;6.43;;
26594;SDS011;14238;49.496;8.154;2023-02-28T09:31:25;7.63;;;6.83;;
26594;SDS011;14238;49.496;8.154;2023-02-28T09:33:53;6.93;;;6.20;;
26594;SDS011;14238;49.496;8.154;2023-02-28T09:36:21;6.80;;;6.20;;
26594;SDS011;14238;49.496;8.154;2023-02-28T09:38:48;8.03;;;7.33;;
26594;SDS011;14238;49.496;8.154;2023-02-28T09:41:17;7.33;;;6.63;;
26594;SDS011;14238;49.496;8.154;2023-02-28T09:43:47;8.20;;;7.50;;
26594;SDS011;14238;49.496;8.154;2023-02-28T09:49:00;7.57;;;6.97;;
26594;SDS011;14238;49.496;8.154;2023-02-28T09:51:35;7.43;;;6.73;;
26594;SDS011;14238;49.496;8.154;2023-02-28T09:54:21;8.03;;;7.30;;
26594;SDS011;14238;49.496;8.154;2023-02-28T09:56:50;7.90;;;7.30;;
26594;SDS011;14238;49.496;8.154;2023-02-28T09:59:31;7.83;;;7.20;;
26594;SDS011;14238;49.496;8.154;2023-02-28T10:02:00;7.40;;;6.80;;
26594;SDS011;14238;49.496;8.154;2023-02-28T10:04:52;7.77;;;7.07;;
26594;SDS011;14238;49.496;8.154;2023-02-28T10:10:27;7.43;;;6.80;;
26594;SDS011;14238;49.496;8.154;2023-02-28T10:12:58;7.80;;;7.20;;
26594;SDS011;14238;49.496;8.154;2023-02-28T10:15:29;7.00;;;6.50;;
26594;SDS011;14238;49.496;8.154;2023-02-28T10:18:14;8.70;;;7.93;;
26594;SDS011;14238;49.496;8.154;2023-02-28T10:20:45;8.03;;;7.33;;
26594;SDS011;14238;49.496;8.154;2023-02-28T10:25:59;7.60;;;6.90;;
26594;SDS011;14238;49.496;8.154;2023-02-28T10:28:36;8.20;;;7.50;;
26594;SDS011;14238;49.496;8.154;2023-02-28T10:31:02;7.90;;;7.30;;
26594;SDS011;14238;49.496;8.154;2023-02-28T10:33:29;8.07;;;7.20;;
26594;SDS011;14238;49.496;8.154;2023-02-28T10:35:59;13.70;;;8.77;;
26594;SDS011;14238;49.496;8.154;2023-02-28T10:38:31;9.80;;;8.93;;
26594;SDS011;14238;49.496;8.154;2023-02-28T10:41:09;8.53;;;7.83;;
26594;SDS011;14238;49.496;8.154;2023-02-28T10:43:37;8.07;;;7.37;;
26594;SDS011;14238;49.496;8.154;2023-02-28T10:49:35;8.53;;;7.83;;
26594;SDS011;14238;49.496;8.154;2023-02-28T10:51:47;8.80;;;8.10;;
26594;SDS011;14238;49.496;8.154;2023-02-28T10:54:30;8.00;;;7.40;;
26594;SDS011;14238;49.496;8.154;2023-02-28T10:59:32;8.80;;;8.10;;
26594;SDS011;14238;49.496;8.154;2023-02-28T11:01:57;8.57;;;7.87;;
26594;SDS011;14238;49.496;8.154;2023-02-28T11:09:28;9.13;;;8.33;;
26594;SDS011;14238;49.496;8.154;2023-02-28T11:11:59;8.40;;;7.70;;
26594;SDS011;14238;49.496;8.154;2023-02-28T11:14:30;7.40;;;6.70;;
26594;SDS011;14238;49.496;8.154;2023-02-28T11:17:19;9.00;;;8.20;;
26594;SDS011;14238;49.496;8.154;2023-02-28T11:19:48;7.87;;;7.20;;
26594;SDS011;14238;49.496;8.154;2023-02-28T11:22:18;8.73;;;7.93;;
26594;SDS011;14238;49.496;8.154;2023-02-28T11:24:47;9.20;;;8.47;;
26594;SDS011;14238;49.496;8.154;2023-02-28T11:29:54;8.70;;;8.00;;
26594;SDS011;14238;49.496;8.154;2023-02-28T11:32:21;9.10;;;8.23;;
26594;SDS011;14238;49.496;8.154;2023-02-28T11:37:27;9.10;;;8.30;;
26594;SDS011;14238;49.496;8.154;2023-02-28T11:39:54;10.10;;;8.10;;
26594;SDS011;14238;49.496;8.154;2023-02-28T11:42:23;8.03;;;7.43;;
26594;SDS011;14238;49.496;8.154;2023-02-28T11:45:15;7.50;;;6.80;;
26594;SDS011;14238;49.496;8.154;2023-02-28T11:53:31;8.93;;;8.23;;
26594;SDS011;14238;49.496;8.154;2023-02-28T11:56:10;9.27;;;8.30;;
26594;SDS011;14238;49.496;8.154;2023-02-28T11:58:54;8.40;;;7.70;;
26594;SDS011;14238;49.496;8.154;2023-02-28T12:02:00;8.00;;;7.40;;
26594;SDS011;14238;49.496;8.154;2023-02-28T12:07:39;8.70;;;8.00;;
26594;SDS011;14238;49.496;8.154;2023-02-28T12:10:16;12.27;;;9.10;;
26594;SDS011;14238;49.496;8.154;2023-02-28T12:15:57;9.77;;;8.50;;
26594;SDS011;14238;49.496;8.154;2023-02-28T12:24:28;9.13;;;8.23;;
26594;SDS011;14238;49.496;8.154;2023-02-28T12:27:00;8.80;;;7.97;;
26594;SDS011;14238;49.496;8.154;2023-02-28T12:29:32;8.90;;;8.10;;
26594;SDS011;14238;49.496;8.154;2023-02-28T12:32:27;10.20;;;8.20;;
26594;SDS011;14238;49.496;8.154;2023-02-28T12:35:03;9.43;;;8.53;;
26594;SDS011;14238;49.496;8.154;2023-02-28T12:37:47;9.80;;;8.90;;
26594;SDS011;14238;49.496;8.154;2023-02-28T12:40:23;10.43;;;9.43;;
26594;SDS011;14238;49.496;8.154;2023-02-28T12:42:56;9.27;;;8.53;;
26594;SDS011;14238;49.496;8.154;2023-02-28T12:45:46;9.30;;;8.50;;
26594;SDS011;14238;49.496;8.154;2023-02-28T12:48:22;9.77;;;8.87;;
26594;SDS011;14238;49.496;8.154;2023-02-28T12:50:52;10.00;;;8.90;;
26594;SDS011;14238;49.496;8.154;2023-02-28T12:55:49;9.30;;;8.43;;
26594;SDS011;14238;49.496;8.154;2023-02-28T13:03:45;10.00;;;9.13;;
26594;SDS011;14238;49.496;8.154;2023-02-28T13:06:45;9.33;;;8.53;;
26594;SDS011;14238;49.496;8.154;2023-02-28T13:09:54;9.67;;;8.73;;
26594;SDS011;14238;49.496;8.154;2023-02-28T13:12:24;9.90;;;9.00;;
26594;SDS011;14238;49.496;8.154;2023-02-28T13:14:51;9.10;;;8.23;;
26594;SDS011;14238;49.496;8.154;2023-02-28T13:17:41;9.83;;;8.83;;
26594;SDS011;14238;49.496;8.154;2023-02-28T13:26:11;10.20;;;9.30;;
26594;SDS011;14238;49.496;8.154;2023-02-28T13:31:23;10.37;;;9.47;;
26594;SDS011;14238;49.496;8.154;2023-02-28T13:36:28;9.83;;;8.93;;
26594;SDS011;14238;49.496;8.154;2023-02-28T13:38:59;11.10;;;10.10;;
26594;SDS011;14238;49.496;8.154;2023-02-28T13:44:13;9.60;;;8.80;;
26594;SDS011;14238;49.496;8.154;2023-02-28T14:03:30;10.67;;;9.87;;
26594;SDS011;14238;49.496;8.154;2023-02-28T14:11:33;9.50;;;8.70;;
26594;SDS011;14238;49.496;8.154;2023-02-28T14:14:01;8.90;;;8.10;;
26594;SDS011;14238;49.496;8.154;2023-02-28T14:17:01;9.20;;;8.40;;
26594;SDS011;14238;49.496;8.154;2023-02-28T14:19:24;10.70;;;9.77;;
26594;SDS011;14238;49.496;8.154;2023-02-28T14:22:12;9.40;;;8.50;;
26594;SDS011;14238;49.496;8.154;2023-02-28T14:25:08;8.50;;;7.70;;
26594;SDS011;14238;49.496;8.154;2023-02-28T14:30:47;10.37;;;9.37;;
26594;SDS011;14238;49.496;8.154;2023-02-28T14:33:31;10.23;;;9.43;;
26594;SDS011;14238;49.496;8.154;2023-02-28T14:41:16;10.30;;;9.30;;
26594;SDS011;14238;49.496;8.154;2023-02-28T14:43:53;10.37;;;9.37;;
26594;SDS011;14238;49.496;8.154;2023-02-28T14:46:21;9.80;;;8.90;;
26594;SDS011;14238;49.496;8.154;2023-02-28T14:48:50;10.37;;;9.37;;
26594;SDS011;14238;49.496;8.154;2023-02-28T14:51:20;10.63;;;9.73;;
26594;SDS011;14238;49.496;8.154;2023-02-28T14:53:48;10.40;;;9.50;;
26594;SDS011;14238;49.496;8.154;2023-02-28T14:56:20;10.20;;;9.30;;
26594;SDS011;14238;49.496;8.154;2023-02-28T14:58:52;10.73;;;9.63;;
26594;SDS011;14238;49.496;8.154;2023-02-28T15:01:20;10.20;;;9.20;;
26594;SDS011;14238;49.496;8.154;2023-02-28T15:03:47;10.00;;;9.10;;
26594;SDS011;14238;49.496;8.154;2023-02-28T15:06:22;10.53;;;9.63;;
26594;SDS011;14238;49.496;8.154;2023-02-28T15:08:56;9.87;;;8.73;;
26594;SDS011;14238;49.496;8.154;2023-02-28T15:11:32;10.13;;;9.03;;
26594;SDS011;14238;49.496;8.154;2023-02-28T15:13:58;11.50;;;10.30;;
26594;SDS011;14238;49.496;8.154;2023-02-28T15:16:30;11.67;;;9.80;;
26594;SDS011;14238;49.496;8.154;2023-02-28T15:19:00;9.80;;;8.90;;
26594;SDS011;14238;49.496;8.154;2023-02-28T15:23:58;9.23;;;8.43;;
26594;SDS011;14238;49.496;8.154;2023-02-28T15:26:32;9.40;;;8.60;;
26594;SDS011;14238;49.496;8.154;2023-02-28T15:29:06;10.10;;;9.20;;
26594;SDS011;14238;49.496;8.154;2023-02-28T15:31:42;9.33;;;8.50;;
26594;SDS011;14238;49.496;8.154;2023-02-28T15:34:17;12.73;;;8.83;;
26594;SDS011;14238;49.496;8.154;2023-02-28T15:36:52;9.40;;;8.50;;
26594;SDS011;14238;49.496;8.154;2023-02-28T15:39:22;9.13;;;8.33;;
26594;SDS011;14238;49.496;8.154;2023-02-28T15:41:50;9.50;;;8.60;;
26594;SDS011;14238;49.496;8.154;2023-02-28T15:44:16;9.53;;;8.73;;
26594;SDS011;14238;49.496;8.154;2023-02-28T15:46:58;10.17;;;9.17;;
26594;SDS011;14238;49.496;8.154;2023-02-28T15:49:27;9.63;;;8.73;;
26594;SDS011;14238;49.496;8.154;2023-02-28T15:51:55;11.60;;;9.73;;
26594;SDS011;14238;49.496;8.154;2023-02-28T15:54:24;10.80;;;9.70;;
26594;SDS011;14238;49.496;8.154;2023-02-28T15:56:55;10.57;;;9.50;;
26594;SDS011;14238;49.496;8.154;2023-02-28T15:59:28;10.27;;;9.17;;
26594;SDS011;14238;49.496;8.154;2023-02-28T16:02:12;11.40;;;10.30;;
26594;SDS011;14238;49.496;8.154;2023-02-28T16:07:56;9.87;;;8.90;;
26594;SDS011;14238;49.496;8.154;2023-02-28T16:10:23;10.70;;;9.70;;
26594;SDS011;14238;49.496;8.154;2023-02-28T16:12:52;10.90;;;9.90;;
26594;SDS011;14238;49.496;8.154;2023-02-28T16:15:21;11.00;;;10.00;;
26594;SDS011;14238;49.496;8.154;2023-02-28T16:18:00;11.03;;;9.93;;
26594;SDS011;14238;49.496;8.154;2023-02-28T16:20:26;10.93;;;9.93;;
26594;SDS011;14238;49.496;8.154;2023-02-28T16:22:54;9.20;;;8.40;;
26594;SDS011;14238;49.496;8.154;2023-02-28T16:25:21;10.13;;;9.23;;
26594;SDS011;14238;49.496;8.154;2023-02-28T16:27:51;10.17;;;9.33;;
26594;SDS011;14238;49.496;8.154;2023-02-28T16:30:20;10.30;;;9.30;;
26594;SDS011;14238;49.496;8.154;2023-02-28T16:32:50;10.17;;;9.13;;
26594;SDS011;14238;49.496;8.154;2023-02-28T16:35:17;10.23;;;9.33;;
26594;SDS011;14238;49.496;8.154;2023-02-28T16:37:44;10.47;;;9.47;;
26594;SDS011;14238;49.496;8.154;2023-02-28T16:40:17;10.50;;;9.60;;
26594;SDS011;14238;49.496;8.154;2023-02-28T16:42:46;13.13;;;9.93;;
26594;SDS011;14238;49.496;8.154;2023-02-28T16:45:21;12.37;;;10.73;;
26594;SDS011;14238;49.496;8.154;2023-02-28T16:47:51;12.80;;;10.70;;
26594;SDS011;14238;49.496;8.154;2023-02-28T16:50:19;11.20;;;10.10;;
26594;SDS011;14238;49.496;8.154;2023-02-28T16:52:46;10.60;;;9.50;;
26594;SDS011;14238;49.496;8.154;2023-02-28T16:55:12;10.03;;;9.03;;
26594;SDS011;14238;49.496;8.154;2023-02-28T16:57:38;12.20;;;10.03;;
26594;SDS011;14238;49.496;8.154;2023-02-28T17:00:05;10.80;;;9.70;;
26594;SDS011;14238;49.496;8.154;2023-02-28T17:02:33;10.57;;;9.57;;
26594;SDS011;14238;49.496;8.154;2023-02-28T17:04:59;11.90;;;10.70;;
26594;SDS011;14238;49.496;8.154;2023-02-28T17:07:24;10.63;;;9.53;;
26594;SDS011;14238;49.496;8.154;2023-02-28T17:09:50;12.83;;;10.40;;
26594;SDS011;14238;49.496;8.154;2023-02-28T17:12:15;11.67;;;10.57;;
26594;SDS011;14238;49.496;8.154;2023-02-28T17:14:41;11.83;;;10.63;;
26594;SDS011;14238;49.496;8.154;2023-02-28T17:17:07;12.40;;;11.10;;
26594;SDS011;14238;49.496;8.154;2023-02-28T17:19:34;9.73;;;8.83;;
26594;SDS011;14238;49.496;8.154;2023-02-28T17:22:01;10.67;;;9.70;;
26594;SDS011;14238;49.496;8.154;2023-02-28T17:24:28;10.83;;;9.30;;